createdAt,value
2023-04-08T00:00:46.454Z,470.6154
2023-04-08T00:01:47.453Z,472.0769
2023-04-08T00:02:48.562Z,470.3077
2023-04-08T00:03:49.711Z,468.9231
2023-04-08T00:04:50.667Z,469.2308
2023-04-08T00:05:51.611Z,470.6923
2023-04-08T00:06:52.653Z,471.7692
2023-04-08T00:07:53.697Z,473.6923
2023-04-08T00:08:54.733Z,474.8462
2023-04-08T00:09:55.819Z,473.9231
2023-04-08T00:10:56.822Z,474.2308
2023-04-08T00:11:57.859Z,474.8462
2023-04-08T00:12:58.953Z,474.8462
2023-04-08T00:14:00.012Z,474.4615
2023-04-08T00:15:01.053Z,474.0000
2023-04-08T00:16:02.026Z,474.8462
2023-04-08T00:17:03.109Z,475.3846
2023-04-08T00:18:04.158Z,473.9231
2023-04-08T00:19:05.134Z,473.7692
2023-04-08T00:20:06.254Z,472.4615
2023-04-08T00:21:07.313Z,473.0000
2023-04-08T00:22:08.321Z,472.7692
2023-04-08T00:23:09.292Z,472.3077
2023-04-08T00:24:10.327Z,471.2308
2023-04-08T00:25:11.451Z,469.0769
2023-04-08T00:26:12.432Z,468.7692
2023-04-08T00:27:13.482Z,467.6923
2023-04-08T00:28:14.548Z,470.3077
2023-04-08T00:29:15.665Z,473.1538
2023-04-08T00:30:16.740Z,473.3846
2023-04-08T00:31:17.751Z,471.6154
2023-04-08T00:32:18.704Z,470.2308
2023-04-08T00:33:19.671Z,471.3846
2023-04-08T00:34:20.704Z,471.3077
2023-04-08T00:35:21.805Z,469.6154
2023-04-08T00:36:22.804Z,468.0769
2023-04-08T00:37:23.813Z,468.2308
2023-04-08T00:38:24.872Z,469.2308
2023-04-08T00:39:25.912Z,468.9231
2023-04-08T00:40:26.980Z,469.0769
2023-04-08T00:41:28.015Z,469.8462
2023-04-08T00:42:29.027Z,469.6154
2023-04-08T00:43:30.049Z,468.6154
2023-04-08T00:44:31.100Z,467.5385
2023-04-08T00:45:32.194Z,467.1538
2023-04-08T00:46:33.188Z,467.8462
2023-04-08T00:47:34.200Z,470.7692
2023-04-08T00:48:35.272Z,470.6154
2023-04-08T00:49:36.306Z,471.5385
2023-04-08T00:50:37.347Z,472.0769
2023-04-08T00:51:38.390Z,471.0000
2023-04-08T00:52:39.439Z,470.6154
2023-04-08T00:53:40.455Z,470.7692
2023-04-08T00:54:41.496Z,470.0000
2023-04-08T00:55:42.562Z,472.1538
2023-04-08T00:56:43.594Z,472.7692
2023-04-08T00:57:44.611Z,471.1538
2023-04-08T00:58:45.674Z,470.1538
2023-04-08T00:59:46.711Z,469.1538
2023-04-08T01:00:47.773Z,468.3077
2023-04-08T01:01:48.911Z,468.3077
2023-04-08T01:02:50.053Z,469.7692
2023-04-08T01:03:50.994Z,469.8462
2023-04-08T01:04:51.894Z,468.7692
2023-04-08T01:05:52.995Z,467.5385
2023-04-08T01:06:53.993Z,466.4615
2023-04-08T01:07:55.026Z,464.8462
2023-04-08T01:08:56.037Z,466.6154
2023-04-08T01:09:57.104Z,467.0000
2023-04-08T01:10:58.180Z,466.3077
2023-04-08T01:11:59.191Z,465.9231
2023-04-08T01:13:00.264Z,466.0000
2023-04-08T01:14:01.291Z,470.9231
2023-04-08T01:15:02.321Z,472.7692
2023-04-08T01:16:03.515Z,471.1538
2023-04-08T01:17:04.466Z,472.2308
2023-04-08T01:18:05.580Z,473.8462
2023-04-08T01:19:06.526Z,473.6154
2023-04-08T01:20:07.599Z,474.0769
2023-04-08T01:21:08.714Z,473.9231
2023-04-08T01:22:09.691Z,472.0769
2023-04-08T01:23:10.734Z,473.3846
2023-04-08T01:24:11.840Z,472.9231
2023-04-08T01:25:12.808Z,472.1538
2023-04-08T01:26:13.808Z,470.8462
2023-04-08T01:27:14.818Z,473.9231
2023-04-08T01:28:15.859Z,477.1538
2023-04-08T01:29:16.893Z,478.0769
2023-04-08T01:30:17.987Z,477.7692
2023-04-08T01:31:19.096Z,477.3846
2023-04-08T01:32:20.093Z,476.1538
2023-04-08T01:33:21.093Z,476.6923
2023-04-08T01:34:22.130Z,476.9231
2023-04-08T01:35:23.312Z,478.4615
2023-04-08T01:36:24.214Z,478.6154
2023-04-08T01:37:25.295Z,477.6154
2023-04-08T01:38:26.307Z,474.8462
2023-04-08T01:39:27.395Z,475.2308
2023-04-08T01:40:28.396Z,475.2308
2023-04-08T01:41:29.473Z,474.2308
2023-04-08T01:42:30.554Z,473.8462
2023-04-08T01:43:31.525Z,474.1538
2023-04-08T01:44:32.594Z,473.0769
2023-04-08T01:45:33.615Z,472.7692
2023-04-08T01:46:34.715Z,474.6154
2023-04-08T01:47:35.768Z,476.7692
2023-04-08T01:48:36.795Z,475.7692
2023-04-08T01:49:37.840Z,472.5385
2023-04-08T01:50:38.881Z,471.0000
2023-04-08T01:51:39.899Z,469.9231
2023-04-08T01:52:40.958Z,468.2308
2023-04-08T01:53:41.996Z,469.1538
2023-04-08T01:54:43.078Z,469.6923
2023-04-08T01:55:44.119Z,470.3846
2023-04-08T01:56:45.126Z,469.0000
2023-04-08T01:57:46.198Z,468.6923
2023-04-08T01:58:47.416Z,469.3077
2023-04-08T01:59:48.256Z,468.6154
2023-04-08T02:00:49.279Z,468.8462
2023-04-08T02:01:50.389Z,469.5385
2023-04-08T02:02:51.548Z,468.9231
2023-04-08T02:03:52.461Z,473.3846
2023-04-08T02:04:53.416Z,475.8462
2023-04-08T02:05:54.483Z,474.3846
2023-04-08T02:06:55.539Z,472.4615
2023-04-08T02:07:56.584Z,474.7692
2023-04-08T02:08:57.594Z,477.4615
2023-04-08T02:09:58.617Z,477.4615
2023-04-08T02:10:59.697Z,477.6154
2023-04-08T02:12:00.718Z,478.0000
2023-04-08T02:13:01.825Z,480.4615
2023-04-08T02:14:02.804Z,481.8462
2023-04-08T02:15:03.858Z,480.5385
2023-04-08T02:16:04.939Z,479.6923
2023-04-08T02:17:05.921Z,478.0769
2023-04-08T02:18:07.035Z,477.7692
2023-04-08T02:19:07.993Z,481.7692
2023-04-08T02:20:09.029Z,477.6923
2023-04-08T02:21:10.079Z,476.0000
2023-04-08T02:22:11.108Z,474.8462
2023-04-08T02:23:12.177Z,473.7692
2023-04-08T02:24:13.222Z,476.1538
2023-04-08T02:25:14.243Z,475.4615
2023-04-08T02:26:15.283Z,477.5385
2023-04-08T02:27:16.337Z,476.0000
2023-04-08T02:28:17.378Z,475.8462
2023-04-08T02:29:18.393Z,474.8462
2023-04-08T02:30:19.491Z,472.7692
2023-04-08T02:31:20.576Z,471.6923
2023-04-08T02:32:21.542Z,469.6923
2023-04-08T02:33:22.598Z,468.7692
2023-04-08T02:34:23.601Z,470.2308
2023-04-08T02:35:24.715Z,470.2308
2023-04-08T02:36:25.692Z,471.1538
2023-04-08T02:37:26.738Z,472.7692
2023-04-08T02:38:27.803Z,473.7692
2023-04-08T02:39:28.797Z,473.0769
2023-04-08T02:40:29.813Z,470.5385
2023-04-08T02:41:30.882Z,472.2308
2023-04-08T02:42:31.918Z,471.1538
2023-04-08T02:43:33.019Z,472.1538
2023-04-08T02:44:34.023Z,472.2308
2023-04-08T02:45:35.105Z,472.6923
2023-04-08T02:46:36.077Z,474.0769
2023-04-08T02:47:37.170Z,474.6154
2023-04-08T02:48:38.197Z,476.0769
2023-04-08T02:49:39.194Z,475.3077
2023-04-08T02:50:40.227Z,473.0000
2023-04-08T02:51:41.283Z,472.8462
2023-04-08T02:52:42.335Z,469.2308
2023-04-08T02:53:43.409Z,470.2308
2023-04-08T02:54:44.414Z,470.2308
2023-04-08T02:55:45.458Z,472.0769
2023-04-08T02:56:46.495Z,472.0769
2023-04-08T02:57:47.539Z,470.4615
2023-04-08T02:58:48.818Z,472.3846
2023-04-08T02:59:49.660Z,473.6154
2023-04-08T03:00:50.694Z,476.6154
2023-04-08T03:01:51.843Z,477.6154
2023-04-08T03:02:52.879Z,478.2308
2023-04-08T03:03:53.994Z,478.8462
2023-04-08T03:04:54.854Z,479.0769
2023-04-08T03:05:55.867Z,480.6154
2023-04-08T03:06:56.920Z,481.7692
2023-04-08T03:07:57.994Z,484.4615
2023-04-08T03:08:59.071Z,487.3846
2023-04-08T03:10:00.097Z,486.2308
2023-04-08T03:11:01.118Z,485.9231
2023-04-08T03:12:02.152Z,483.8462
2023-04-08T03:13:03.237Z,482.6154
2023-04-08T03:14:04.281Z,483.3077
2023-04-08T03:15:05.308Z,480.7692
2023-04-08T03:16:06.364Z,481.1538
2023-04-08T03:17:07.355Z,479.6154
2023-04-08T03:18:08.413Z,479.0000
2023-04-08T03:19:09.516Z,479.3846
2023-04-08T03:20:10.541Z,479.3846
2023-04-08T03:21:11.533Z,480.0769
2023-04-08T03:22:12.581Z,478.7692
2023-04-08T03:23:13.617Z,478.1538
2023-04-08T03:24:14.674Z,475.6154
2023-04-08T03:25:15.696Z,473.6154
2023-04-08T03:26:16.719Z,473.6923
2023-04-08T03:27:17.787Z,475.2308
2023-04-08T03:28:18.818Z,474.6923
2023-04-08T03:29:19.892Z,474.3846
2023-04-08T03:30:20.935Z,473.7692
2023-04-08T03:31:21.959Z,474.0000
2023-04-08T03:32:22.993Z,473.6154
2023-04-08T03:33:24.095Z,471.9231
2023-04-08T03:34:25.177Z,470.1538
2023-04-08T03:35:26.185Z,470.2308
2023-04-08T03:36:27.229Z,472.6923
2023-04-08T03:37:28.263Z,472.6154
2023-04-08T03:38:29.315Z,470.2308
2023-04-08T03:39:30.570Z,470.6923
2023-04-08T03:40:31.458Z,470.9231
2023-04-08T03:41:32.453Z,472.7692
2023-04-08T03:42:33.512Z,474.5385
2023-04-08T03:43:36.760Z,472.9231
2023-04-08T03:44:35.653Z,470.9231
2023-04-08T03:45:36.704Z,472.3077
2023-04-08T03:46:37.677Z,474.0769
2023-04-08T03:47:38.749Z,475.6923
2023-04-08T03:48:39.776Z,477.2308
2023-04-08T03:49:40.853Z,475.5385
2023-04-08T03:50:41.869Z,474.0000
2023-04-08T03:51:42.897Z,473.2308
2023-04-08T03:52:43.933Z,473.1538
2023-04-08T03:53:44.976Z,476.0000
2023-04-08T03:54:46.071Z,479.1538
2023-04-08T03:55:47.067Z,480.9231
2023-04-08T03:56:48.094Z,484.1538
2023-04-08T03:57:49.147Z,484.4615
2023-04-08T03:58:50.870Z,487.5385
2023-04-08T03:59:51.134Z,492.0769
2023-04-08T04:00:52.159Z,492.6154
2023-04-08T04:01:53.261Z,493.9231
2023-04-08T04:02:54.353Z,495.4615
2023-04-08T04:03:55.393Z,498.1538
2023-04-08T04:04:56.527Z,499.0000
2023-04-08T04:05:57.352Z,500.2308
2023-04-08T04:06:58.381Z,499.2308
2023-04-08T04:07:59.435Z,499.0769
2023-04-08T04:09:00.496Z,498.2308
2023-04-08T04:10:01.675Z,497.6923
2023-04-08T04:11:02.571Z,497.0769
2023-04-08T04:12:03.623Z,500.3846
2023-04-08T04:13:04.658Z,502.3846
2023-04-08T04:14:05.710Z,504.2308
2023-04-08T04:15:06.775Z,504.6923
2023-04-08T04:16:07.877Z,502.3846
2023-04-08T04:17:08.870Z,502.3846
2023-04-08T04:18:09.985Z,502.6923
2023-04-08T04:19:11.335Z,502.0000
2023-04-08T04:20:11.994Z,500.9231
2023-04-08T04:21:13.044Z,499.7692
2023-04-08T04:22:14.073Z,498.3846
2023-04-08T04:23:15.095Z,500.3846
2023-04-08T04:24:16.194Z,498.0000
2023-04-08T04:25:17.297Z,496.3077
2023-04-08T04:26:18.254Z,497.5385
2023-04-08T04:27:19.292Z,495.3846
2023-04-08T04:28:20.341Z,494.6923
2023-04-08T04:29:21.382Z,494.3077
2023-04-08T04:30:22.428Z,493.0769
2023-04-08T04:31:23.532Z,492.9231
2023-04-08T04:32:24.518Z,491.3077
2023-04-08T04:33:25.502Z,490.9231
2023-04-08T04:34:26.529Z,490.3077
2023-04-08T04:35:27.732Z,488.8462
2023-04-08T04:36:28.684Z,488.2308
2023-04-08T04:37:29.670Z,488.6923
2023-04-08T04:38:30.744Z,487.9231
2023-04-08T04:39:31.780Z,486.6923
2023-04-08T04:40:32.801Z,490.3077
2023-04-08T04:41:33.850Z,491.9231
2023-04-08T04:42:34.939Z,496.0769
2023-04-08T04:43:36.008Z,499.2308
2023-04-08T04:44:37.010Z,501.0000
2023-04-08T04:45:38.205Z,502.2308
2023-04-08T04:46:39.204Z,502.0769
2023-04-08T04:47:40.206Z,503.6154
2023-04-08T04:48:41.212Z,505.9231
2023-04-08T04:49:42.248Z,506.1538
2023-04-08T04:50:43.344Z,506.4615
2023-04-08T04:51:44.329Z,506.0000
2023-04-08T04:52:45.382Z,506.9231
2023-04-08T04:53:46.409Z,506.3077
2023-04-08T04:54:47.510Z,508.6923
2023-04-08T04:55:48.543Z,507.5385
2023-04-08T04:56:49.611Z,507.6923
2023-04-08T04:57:50.664Z,511.3846
2023-04-08T04:58:51.992Z,513.4615
2023-04-08T04:59:52.684Z,515.1539
2023-04-08T05:00:53.773Z,514.6923
2023-04-08T05:01:54.809Z,513.9231
2023-04-08T05:02:55.973Z,513.9231
2023-04-08T05:03:56.812Z,513.7692
2023-04-08T05:04:57.964Z,512.3846
2023-04-08T05:05:59.018Z,510.8462
2023-04-08T05:07:00.018Z,510.7692
2023-04-08T05:08:01.071Z,508.3077
2023-04-08T05:09:02.099Z,508.7692
2023-04-08T05:10:03.140Z,508.4615
2023-04-08T05:11:04.214Z,509.3077
2023-04-08T05:12:05.286Z,507.4615
2023-04-08T05:13:06.280Z,508.5385
2023-04-08T05:14:07.215Z,509.6154
2023-04-08T05:15:08.260Z,507.7692
2023-04-08T05:16:09.465Z,504.7692
2023-04-08T05:17:10.344Z,503.0000
2023-04-08T05:18:11.427Z,503.0000
2023-04-08T05:19:12.520Z,501.7692
2023-04-08T05:20:15.342Z,498.8462
2023-04-08T05:21:14.616Z,498.5385
2023-04-08T05:22:15.576Z,497.8462
2023-04-08T05:23:16.617Z,499.5385
2023-04-08T05:24:17.672Z,501.1538
2023-04-08T05:25:18.733Z,499.5385
2023-04-08T05:26:20.352Z,500.0769
2023-04-08T05:27:20.754Z,499.5385
2023-04-08T05:28:21.832Z,497.1538
2023-04-08T05:29:22.897Z,500.6154
2023-04-08T05:30:23.955Z,500.3846
2023-04-08T05:31:25.061Z,502.1538
2023-04-08T05:32:26.023Z,502.7692
2023-04-08T05:33:27.037Z,503.2308
2023-04-08T05:34:28.327Z,505.1538
2023-04-08T05:35:29.161Z,499.0000
2023-04-08T05:36:30.239Z,498.0769
2023-04-08T05:37:31.219Z,498.6154
2023-04-08T05:38:32.189Z,499.9231
2023-04-08T05:39:33.231Z,499.4615
2023-04-08T05:40:34.284Z,498.2308
2023-04-08T05:41:35.360Z,497.5385
2023-04-08T05:42:36.299Z,496.8462
2023-04-08T05:43:37.330Z,499.3846
2023-04-08T05:44:38.350Z,501.4615
2023-04-08T05:45:39.392Z,501.8462
2023-04-08T05:46:40.545Z,501.8462
2023-04-08T05:47:41.541Z,499.3077
2023-04-08T05:48:42.522Z,498.6154
2023-04-08T05:49:43.578Z,501.4615
2023-04-08T05:50:44.562Z,503.0000
2023-04-08T05:51:45.642Z,502.9231
2023-04-08T05:52:46.675Z,503.6154
2023-04-08T05:53:47.728Z,503.1538
2023-04-08T05:54:48.754Z,503.9231
2023-04-08T05:55:49.787Z,505.2308
2023-04-08T05:56:50.858Z,505.9231
2023-04-08T05:57:51.847Z,504.3077
2023-04-08T05:58:52.955Z,504.1538
2023-04-08T05:59:53.934Z,505.7692
2023-04-08T06:00:54.992Z,506.0000
2023-04-08T06:01:56.052Z,507.6154
2023-04-08T06:02:57.404Z,509.3077
2023-04-08T06:03:58.262Z,507.0769
2023-04-08T06:04:59.279Z,507.6154
2023-04-08T06:06:00.177Z,509.0000
2023-04-08T06:07:01.247Z,510.7692
2023-04-08T06:08:02.274Z,512.3077
2023-04-08T06:09:03.290Z,511.3077
2023-04-08T06:10:04.309Z,512.1539
2023-04-08T06:11:05.549Z,513.3846
2023-04-08T06:12:06.484Z,515.7692
2023-04-08T06:13:07.434Z,516.9231
2023-04-08T06:14:08.531Z,516.5385
2023-04-08T06:15:09.610Z,516.6154
2023-04-08T06:16:10.609Z,518.9231
2023-04-08T06:17:11.681Z,518.6923
2023-04-08T06:18:12.815Z,515.7692
2023-04-08T06:19:13.868Z,513.3846
2023-04-08T06:20:14.826Z,512.9231
2023-04-08T06:21:15.870Z,512.3846
2023-04-08T06:22:16.947Z,511.3846
2023-04-08T06:23:17.936Z,512.0769
2023-04-08T06:24:18.983Z,513.6154
2023-04-08T06:25:20.009Z,515.5385
2023-04-08T06:26:21.067Z,514.6923
2023-04-08T06:27:22.127Z,513.0769
2023-04-08T06:28:23.131Z,512.1539
2023-04-08T06:29:24.173Z,512.9231
2023-04-08T06:30:25.236Z,514.0000
2023-04-08T06:31:26.272Z,514.6923
2023-04-08T06:32:27.390Z,515.7692
2023-04-08T06:33:28.349Z,518.6154
2023-04-08T06:34:29.467Z,519.0000
2023-04-08T06:35:32.218Z,520.2308
2023-04-08T06:36:31.523Z,520.5385
2023-04-08T06:37:32.537Z,521.5385
2023-04-08T06:38:33.792Z,519.6923
2023-04-08T06:39:34.692Z,516.0769
2023-04-08T06:40:35.938Z,514.6923
2023-04-08T06:41:36.662Z,514.2308
2023-04-08T06:42:37.759Z,512.6923
2023-04-08T06:43:38.727Z,507.2308
2023-04-08T06:44:39.790Z,505.3846
2023-04-08T06:45:40.852Z,504.4615
2023-04-08T06:46:41.860Z,503.4615
2023-04-08T06:47:42.988Z,503.3077
2023-04-08T06:48:43.950Z,503.3077
2023-04-08T06:49:44.971Z,501.2308
2023-04-08T06:50:46.012Z,499.3077
2023-04-08T06:51:47.049Z,499.0769
2023-04-08T06:52:48.132Z,501.0769
2023-04-08T06:53:49.165Z,501.5385
2023-04-08T06:54:50.167Z,503.1538
2023-04-08T06:55:51.225Z,504.6154
2023-04-08T06:56:52.267Z,503.8462
2023-04-08T06:57:53.332Z,501.1538
2023-04-08T06:58:54.304Z,498.7692
2023-04-08T06:59:55.386Z,497.0000
2023-04-08T07:00:56.485Z,498.5385
2023-04-08T07:01:57.534Z,496.0000
2023-04-08T07:02:58.660Z,493.1538
2023-04-08T07:03:59.572Z,488.1538
2023-04-08T07:05:00.590Z,486.1538
2023-04-08T07:06:01.657Z,484.6923
2023-04-08T07:07:02.757Z,484.3077
2023-04-08T07:08:03.784Z,483.6923
2023-04-08T07:09:04.735Z,486.3846
2023-04-08T07:10:05.774Z,488.2308
2023-04-08T07:11:06.813Z,485.6154
2023-04-08T07:12:07.922Z,483.6154
2023-04-08T07:13:08.935Z,485.0769
2023-04-08T07:14:10.093Z,485.3077
2023-04-08T07:15:11.050Z,484.6923
2023-04-08T07:16:12.095Z,483.9231
2023-04-08T07:17:13.155Z,485.0769
2023-04-08T07:18:14.196Z,482.9231
2023-04-08T07:19:15.187Z,482.0769
2023-04-08T07:20:16.221Z,483.1538
2023-04-08T07:21:17.230Z,484.3077
2023-04-08T07:22:18.300Z,484.4615
2023-04-08T07:23:19.371Z,481.0769
2023-04-08T07:24:20.357Z,479.6923
2023-04-08T07:25:21.407Z,481.2308
2023-04-08T07:26:22.451Z,480.6154
2023-04-08T07:27:24.397Z,480.2308
2023-04-08T07:28:24.461Z,484.9231
2023-04-08T07:29:25.473Z,486.0000
2023-04-08T07:30:26.517Z,486.1538
2023-04-08T07:31:27.603Z,485.6154
2023-04-08T07:32:28.685Z,481.5385
2023-04-08T07:33:29.685Z,481.1538
2023-04-08T07:34:30.714Z,479.4615
2023-04-08T07:35:31.733Z,479.7692
2023-04-08T07:36:32.757Z,482.5385
2023-04-08T07:37:33.818Z,480.6154
2023-04-08T07:38:34.868Z,482.1538
2023-04-08T07:39:35.891Z,484.0000
2023-04-08T07:40:36.999Z,485.2308
2023-04-08T07:41:38.034Z,486.3077
2023-04-08T07:42:40.811Z,485.4615
2023-04-08T07:43:40.163Z,486.0769
2023-04-08T07:44:41.141Z,484.5385
2023-04-08T07:45:42.203Z,484.0769
2023-04-08T07:46:43.282Z,483.5385
2023-04-08T07:47:44.293Z,483.8462
2023-04-08T07:48:45.344Z,485.5385
2023-04-08T07:49:46.334Z,487.3077
2023-04-08T07:51:08.600Z,486.3077
2023-04-08T07:51:48.422Z,488.0769
2023-04-08T07:52:49.496Z,487.3077
2023-04-08T07:53:50.526Z,488.2308
2023-04-08T07:54:51.546Z,488.1538
2023-04-08T07:55:52.581Z,488.2308
2023-04-08T07:56:53.681Z,488.2308
2023-04-08T07:57:54.675Z,485.4615
2023-04-08T07:58:56.001Z,485.9231
2023-04-08T07:59:56.775Z,483.3846
2023-04-08T08:00:57.793Z,481.0000
2023-04-08T08:01:58.941Z,480.0000
2023-04-08T08:03:00.043Z,479.0000
2023-04-08T08:04:01.148Z,478.7692
2023-04-08T08:05:02.089Z,477.9231
2023-04-08T08:06:03.048Z,479.6154
2023-04-08T08:07:04.077Z,481.0000
2023-04-08T08:08:05.148Z,480.0769
2023-04-08T08:09:06.241Z,480.6154
2023-04-08T08:10:07.241Z,484.2308
2023-04-08T08:11:08.294Z,483.0769
2023-04-08T08:12:09.277Z,481.7692
2023-04-08T08:13:10.338Z,481.5385
2023-04-08T08:14:11.416Z,481.3846
2023-04-08T08:15:12.410Z,480.5385
2023-04-08T08:16:13.509Z,481.2308
2023-04-08T08:17:14.459Z,482.4615
2023-04-08T08:18:15.519Z,479.4615
2023-04-08T08:19:16.599Z,480.2308
2023-04-08T08:20:17.660Z,481.8462
2023-04-08T08:21:18.628Z,482.1538
2023-04-08T08:22:19.653Z,483.3077
2023-04-08T08:23:20.651Z,482.3077
2023-04-08T08:24:21.812Z,483.1538
2023-04-08T08:25:24.735Z,482.9231
2023-04-08T08:26:23.772Z,484.6923
2023-04-08T08:27:24.832Z,488.0000
2023-04-08T08:28:25.981Z,487.2308
2023-04-08T08:29:26.968Z,488.1538
2023-04-08T08:30:28.002Z,484.3846
2023-04-08T08:31:29.097Z,485.3846
2023-04-08T08:32:30.084Z,485.6923
2023-04-08T08:33:31.084Z,486.8462
2023-04-08T08:34:32.206Z,483.8462
2023-04-08T08:35:33.171Z,482.4615
2023-04-08T08:36:34.923Z,485.4615
2023-04-08T08:37:35.259Z,488.6923
2023-04-08T08:38:36.174Z,487.5385
2023-04-08T08:39:37.260Z,485.7692
2023-04-08T08:40:38.351Z,486.0000
2023-04-08T08:41:39.381Z,486.2308
2023-04-08T08:42:40.447Z,484.7692
2023-04-08T08:43:41.457Z,484.6154
2023-04-08T08:44:42.627Z,484.1538
2023-04-08T08:45:43.544Z,483.2308
2023-04-08T08:46:44.665Z,483.0769
2023-04-08T08:47:45.646Z,482.3077
2023-04-08T08:48:46.652Z,481.6154
2023-04-08T08:49:47.751Z,480.6154
2023-04-08T08:50:48.711Z,479.4615
2023-04-08T08:51:49.789Z,480.6923
2023-04-08T08:52:50.833Z,479.7692
2023-04-08T08:53:51.870Z,482.3077
2023-04-08T08:54:52.819Z,485.4615
2023-04-08T08:56:16.622Z,483.3846
2023-04-08T08:56:54.851Z,483.0769
2023-04-08T08:57:55.892Z,482.2308
2023-04-08T08:58:56.941Z,481.6923
2023-04-08T08:59:58.063Z,481.3846
2023-04-08T09:00:58.994Z,482.5385
2023-04-08T09:02:00.116Z,482.6923
2023-04-08T09:03:01.275Z,483.7692
2023-04-08T09:04:02.307Z,484.0769
2023-04-08T09:05:03.320Z,484.0769
2023-04-08T09:06:04.214Z,481.8462
2023-04-08T09:07:05.232Z,480.5385
2023-04-08T09:08:06.376Z,479.3077
2023-04-08T09:09:07.327Z,479.8462
2023-04-08T09:10:08.412Z,482.0769
2023-04-08T09:11:09.397Z,479.6923
2023-04-08T09:12:10.391Z,478.7692
2023-04-08T09:13:11.453Z,476.2308
2023-04-08T09:14:12.480Z,475.6154
2023-04-08T09:15:13.581Z,475.9231
2023-04-08T09:16:14.618Z,475.9231
2023-04-08T09:17:15.594Z,477.8462
2023-04-08T09:18:17.844Z,478.9231
2023-04-08T09:19:17.654Z,477.3077
2023-04-08T09:20:18.690Z,475.3077
2023-04-08T09:21:19.821Z,474.0000
2023-04-08T09:22:20.817Z,475.0000
2023-04-08T09:23:21.803Z,474.7692
2023-04-08T09:24:22.894Z,475.9231
2023-04-08T09:25:23.917Z,476.4615
2023-04-08T09:26:25.005Z,475.2308
2023-04-08T09:27:25.970Z,476.0769
2023-04-08T09:28:26.992Z,476.7692
2023-04-08T09:29:31.142Z,474.7692
2023-04-08T09:30:29.044Z,472.3077
2023-04-08T09:31:30.148Z,471.1538
2023-04-08T09:32:31.136Z,469.0769
2023-04-08T09:33:32.173Z,472.6923
2023-04-08T09:34:33.195Z,473.8462
2023-04-08T09:35:34.260Z,470.7692
2023-04-08T09:36:35.308Z,469.2308
2023-04-08T09:37:36.280Z,471.0769
2023-04-08T09:38:37.346Z,471.2308
2023-04-08T09:39:38.345Z,470.8462
2023-04-08T09:40:39.381Z,468.7692
2023-04-08T09:41:40.463Z,469.7692
2023-04-08T09:42:41.502Z,470.0769
2023-04-08T09:43:42.523Z,470.3846
2023-04-08T09:44:43.637Z,472.6923
2023-04-08T09:45:44.732Z,473.0000
2023-04-08T09:46:45.733Z,474.0000
2023-04-08T09:47:46.778Z,476.3077
2023-04-08T09:48:47.772Z,478.2308
2023-04-08T09:49:48.818Z,477.3846
2023-04-08T09:50:49.831Z,476.7692
2023-04-08T09:51:50.961Z,475.9231
2023-04-08T09:52:51.943Z,475.3077
2023-04-08T09:53:53.010Z,474.9231
2023-04-08T09:54:54.019Z,474.3077
2023-04-08T09:55:55.079Z,471.7692
2023-04-08T09:56:56.113Z,472.6154
2023-04-08T09:57:57.151Z,471.6923
2023-04-08T09:58:58.235Z,469.5385
2023-04-08T09:59:59.194Z,467.6154
2023-04-08T10:01:00.296Z,467.2308
2023-04-08T10:02:01.548Z,461.4615
2023-04-08T10:03:02.525Z,466.5385
2023-04-08T10:04:03.454Z,469.8462
2023-04-08T10:05:06.210Z,475.1538
2023-04-08T10:06:05.494Z,474.2308
2023-04-08T10:07:06.515Z,475.6923
2023-04-08T10:08:07.547Z,477.7692
2023-04-08T10:09:08.558Z,479.0000
2023-04-08T10:10:09.615Z,478.0000
2023-04-08T10:11:10.718Z,476.0000
2023-04-08T10:12:11.714Z,476.1538
2023-04-08T10:13:12.790Z,474.6154
2023-04-08T10:14:13.843Z,473.7692
2023-04-08T10:15:14.875Z,470.6154
2023-04-08T10:16:15.987Z,469.7692
2023-04-08T10:17:16.915Z,472.1538
2023-04-08T10:18:17.949Z,474.6154
2023-04-08T10:19:18.951Z,476.6154
2023-04-08T10:20:19.981Z,475.0000
2023-04-08T10:21:21.016Z,474.4615
2023-04-08T10:22:22.159Z,477.5385
2023-04-08T10:23:23.132Z,478.0769
2023-04-08T10:24:24.150Z,476.6154
2023-04-08T10:25:25.208Z,474.4615
2023-04-08T10:26:26.298Z,469.0769
2023-04-08T10:27:27.339Z,468.1538
2023-04-08T10:28:28.865Z,470.3077
2023-04-08T10:29:29.249Z,469.6923
2023-04-08T10:30:30.293Z,470.6923
2023-04-08T10:31:31.688Z,470.8462
2023-04-08T10:32:32.397Z,471.9231
2023-04-08T10:33:33.417Z,471.2308
2023-04-08T10:34:34.452Z,472.3077
2023-04-08T10:35:35.598Z,466.7692
2023-04-08T10:36:36.551Z,465.1538
2023-04-08T10:37:38.954Z,467.7692
2023-04-08T10:38:38.640Z,469.3077
2023-04-08T10:39:39.635Z,470.3077
2023-04-08T10:40:40.696Z,470.6923
2023-04-08T10:41:41.743Z,470.3077
2023-04-08T10:42:42.803Z,470.4615
2023-04-08T10:43:43.798Z,469.3846
2023-04-08T10:44:44.831Z,467.3077
2023-04-08T10:45:47.275Z,466.8462
2023-04-08T10:46:46.910Z,468.0769
2023-04-08T10:47:48.030Z,469.9231
2023-04-08T10:48:49.001Z,472.1538
2023-04-08T10:49:50.037Z,472.3077
2023-04-08T10:50:51.070Z,471.0769
2023-04-08T10:51:52.090Z,473.2308
2023-04-08T10:52:53.184Z,472.6923
2023-04-08T10:53:54.158Z,471.3077
2023-04-08T10:54:55.255Z,470.9231
2023-04-08T10:55:56.259Z,470.6923
2023-04-08T10:56:57.288Z,470.3846
2023-04-08T10:57:58.499Z,470.9231
2023-04-08T10:58:59.364Z,470.3077
2023-04-08T11:00:00.412Z,469.5385
2023-04-08T11:01:01.467Z,466.8462
2023-04-08T11:02:02.699Z,464.3846
2023-04-08T11:03:03.777Z,465.0769
2023-04-08T11:04:04.710Z,466.3077
2023-04-08T11:05:05.605Z,466.8462
2023-04-08T11:06:06.617Z,468.6923
2023-04-08T11:07:07.681Z,468.1538
2023-04-08T11:08:08.718Z,467.3846
2023-04-08T11:09:09.749Z,468.0000
2023-04-08T11:10:10.781Z,470.8462
2023-04-08T11:11:11.899Z,469.3077
2023-04-08T11:12:12.850Z,467.7692
2023-04-08T11:13:13.921Z,467.3077
2023-04-08T11:14:14.937Z,465.3077
2023-04-08T11:15:15.965Z,464.3077
2023-04-08T11:16:18.675Z,463.7692
2023-04-08T11:17:18.072Z,461.3846
2023-04-08T11:18:19.128Z,461.4615
2023-04-08T11:19:20.178Z,463.6154
2023-04-08T11:20:21.179Z,462.6154
2023-04-08T11:21:22.228Z,462.9231
2023-04-08T11:22:23.230Z,462.7692
2023-04-08T11:23:24.354Z,464.9231
2023-04-08T11:24:25.337Z,464.9231
2023-04-08T11:25:26.354Z,462.0000
2023-04-08T11:26:27.484Z,457.3077
2023-04-08T11:27:28.470Z,459.9231
2023-04-08T11:28:29.631Z,467.8462
2023-04-08T11:29:30.703Z,469.1538
2023-04-08T11:30:31.734Z,471.9231
2023-04-08T11:31:32.746Z,472.4615
2023-04-08T11:32:33.867Z,473.8462
2023-04-08T11:33:34.888Z,476.9231
2023-04-08T11:34:35.826Z,476.3846
2023-04-08T11:35:36.878Z,464.1538
2023-04-08T11:36:37.892Z,466.0769
2023-04-08T11:37:39.082Z,467.1538
2023-04-08T11:38:40.068Z,465.8462
2023-04-08T11:39:41.014Z,465.2308
2023-04-08T11:40:42.189Z,464.0000
2023-04-08T11:41:43.193Z,463.6154
2023-04-08T11:42:45.951Z,461.3077
2023-04-08T11:43:45.271Z,458.2308
2023-04-08T11:44:46.252Z,456.6923
2023-04-08T11:45:47.391Z,459.3077
2023-04-08T11:46:48.404Z,457.0000
2023-04-08T11:47:49.584Z,454.6154
2023-04-08T11:48:50.496Z,455.0769
2023-04-08T11:49:51.454Z,459.2308
2023-04-08T11:50:52.503Z,462.1538
2023-04-08T11:51:53.531Z,465.3846
2023-04-08T11:52:54.588Z,464.0000
2023-04-08T11:53:56.594Z,462.3077
2023-04-08T11:54:56.653Z,470.0000
2023-04-08T11:55:57.915Z,468.4615
2023-04-08T11:56:58.752Z,464.3846